Time;durP1;ratioP1;P1;durP2;ratioP2;P2;SDS_P1;SDS_P2;PMS_P1;PMS_P2;Temp;Humidity;BMP_temperature;BMP_pressure;BME280_temperature;BME280_humidity;BME280_pressure;Samples;Min_cycle;Max_cycle;Signal;HPM_P1;HPM_P2
2023/01/07 00:01:06;;;;;;;32.45;27.95;;;9.80;99.90;;;;;;5047053;28;20049;-68
2023/01/07 00:03:33;;;;;;;33.70;28.05;;;9.80;99.90;;;;;;5049432;28;20126;-68
2023/01/07 00:06:07;;;;;;;35.13;29.23;;;9.90;99.90;;;;;;5042680;28;20048;-68
2023/01/07 00:08:37;;;;;;;33.67;29.17;;;9.90;99.90;;;;;;5043488;28;20090;-69
2023/01/07 00:11:07;;;;;;;33.00;28.27;;;9.90;99.90;;;;;;5046387;28;20068;-69
2023/01/07 00:13:34;;;;;;;37.95;30.85;;;9.90;99.90;;;;;;5046165;28;20040;-69
2023/01/07 00:16:01;;;;;;;39.30;31.58;;;9.90;99.90;;;;;;5056325;28;20048;-68
2023/01/07 00:18:27;;;;;;;37.80;30.95;;;9.90;99.90;;;;;;5046946;28;20044;-69
2023/01/07 00:20:57;;;;;;;38.78;31.70;;;9.90;99.90;;;;;;5048378;28;20037;-68
2023/01/07 00:23:23;;;;;;;41.35;32.83;;;10.00;99.90;;;;;;5045580;28;20056;-69
2023/01/07 00:25:49;;;;;;;39.50;32.42;;;10.00;99.90;;;;;;5047779;28;20041;-68
2023/01/07 00:28:15;;;;;;;38.42;32.33;;;10.00;99.90;;;;;;5044630;28;20044;-69
2023/01/07 00:30:41;;;;;;;42.65;33.47;;;10.00;99.90;;;;;;5050182;28;20392;-69
2023/01/07 00:33:08;;;;;;;41.22;33.30;;;10.00;99.90;;;;;;5050046;28;20450;-69
2023/01/07 00:35:36;;;;;;;42.88;35.08;;;10.00;99.90;;;;;;5050450;28;20041;-68
2023/01/07 00:38:03;;;;;;;41.92;33.20;;;10.00;99.90;;;;;;5043815;28;20056;-68
2023/01/07 00:40:30;;;;;;;39.80;32.60;;;10.00;99.90;;;;;;5033725;28;20041;-69
2023/01/07 00:43:05;;;;;;;41.03;33.65;;;10.00;99.90;;;;;;5050157;28;20056;-69
2023/01/07 00:45:35;;;;;;;44.45;33.85;;;10.00;99.90;;;;;;5047780;28;20124;-69
2023/01/07 00:48:03;;;;;;;40.28;33.15;;;10.00;99.90;;;;;;5048772;28;20106;-68
2023/01/07 00:50:34;;;;;;;42.03;33.88;;;10.10;99.90;;;;;;5045294;28;20048;-69
2023/01/07 00:53:01;;;;;;;42.30;34.25;;;10.10;99.90;;;;;;5049864;28;20120;-69
2023/01/07 00:55:27;;;;;;;45.05;35.17;;;10.10;99.90;;;;;;5049818;28;20045;-68
2023/01/07 00:57:53;;;;;;;44.42;35.35;;;10.10;99.90;;;;;;5050410;28;20052;-68
2023/01/07 01:00:21;;;;;;;47.75;36.38;;;10.10;99.90;;;;;;5050494;28;20119;-68
2023/01/07 01:02:48;;;;;;;41.85;35.65;;;10.10;99.90;;;;;;5054862;28;20052;-69
2023/01/07 01:05:14;;;;;;;47.87;36.33;;;10.10;99.90;;;;;;5053990;28;20041;-68
2023/01/07 01:07:40;;;;;;;46.95;35.10;;;10.10;99.90;;;;;;5044771;28;20069;-69
2023/01/07 01:10:08;;;;;;;47.70;36.75;;;10.10;99.90;;;;;;5048788;28;20416;-68
2023/01/07 01:12:34;;;;;;;45.60;36.60;;;10.10;99.90;;;;;;5038700;28;20322;-68
2023/01/07 01:15:03;;;;;;;46.65;37.30;;;10.10;99.90;;;;;;5048091;28;20127;-68
2023/01/07 01:17:28;;;;;;;47.45;36.17;;;10.10;99.90;;;;;;5048750;28;20053;-69
2023/01/07 01:19:54;;;;;;;44.50;36.33;;;10.10;99.90;;;;;;5051202;28;20056;-69
2023/01/07 01:22:19;;;;;;;45.17;36.65;;;10.10;99.90;;;;;;5047228;28;20045;-69
2023/01/07 01:24:45;;;;;;;44.95;36.17;;;10.20;99.90;;;;;;5051420;28;20048;-69
2023/01/07 01:27:11;;;;;;;43.10;35.60;;;10.20;99.90;;;;;;5052448;28;20112;-69
2023/01/07 01:29:36;;;;;;;39.90;33.70;;;10.20;99.90;;;;;;5049624;28;20045;-69
2023/01/07 01:32:02;;;;;;;44.03;35.35;;;10.20;99.90;;;;;;5050932;28;20095;-69
2023/01/07 01:34:27;;;;;;;48.40;36.10;;;10.20;99.90;;;;;;5050431;28;20064;-69
2023/01/07 01:36:53;;;;;;;47.03;35.55;;;10.20;99.90;;;;;;5049795;28;20056;-69
2023/01/07 01:39:19;;;;;;;44.58;35.25;;;10.20;99.90;;;;;;5050891;28;20077;-69
2023/01/07 01:41:46;;;;;;;43.78;35.08;;;10.20;99.90;;;;;;5048029;28;20056;-69
2023/01/07 01:44:38;;;;;;;45.78;36.35;;;10.20;99.90;;;;;;5049451;28;20461;-69
2023/01/07 01:47:12;;;;;;;41.50;33.33;;;10.20;99.90;;;;;;5050310;28;20029;-69
2023/01/07 01:49:43;;;;;;;39.03;32.50;;;10.20;99.90;;;;;;5047461;28;20051;-69
2023/01/07 01:52:15;;;;;;;41.42;32.50;;;10.20;99.90;;;;;;5054619;28;20072;-69
2023/01/07 01:54:46;;;;;;;37.05;31.02;;;10.20;99.90;;;;;;5048742;28;20048;-68
2023/01/07 01:57:12;;;;;;;33.70;29.73;;;10.20;99.90;;;;;;5051558;28;20088;-69
2023/01/07 01:59:41;;;;;;;33.90;30.20;;;10.20;99.90;;;;;;5048574;28;20041;-69
2023/01/07 02:02:07;;;;;;;33.92;29.13;;;10.20;99.90;;;;;;5045813;28;20051;-68
2023/01/07 02:04:34;;;;;;;36.57;30.30;;;10.20;99.90;;;;;;5050785;28;20087;-69
2023/01/07 02:07:04;;;;;;;38.10;31.77;;;10.30;99.90;;;;;;5046948;28;20068;-69
2023/01/07 02:09:29;;;;;;;33.95;30.17;;;10.30;99.90;;;;;;5047747;28;20056;-69
2023/01/07 02:12:17;;;;;;;39.78;32.25;;;10.20;99.90;;;;;;5052071;28;20044;-69
2023/01/07 02:15:00;;;;;;;;;;;10.30;99.90;;;;;;5051626;28;20102;-68
2023/01/07 02:17:43;;;;;;;37.15;30.55;;;10.20;99.90;;;;;;5051542;28;19966;-69
2023/01/07 02:20:36;;;;;;;40.10;32.30;;;10.20;99.90;;;;;;5046958;28;20052;-69
2023/01/07 02:23:16;;;;;;;39.08;32.72;;;10.20;99.90;;;;;;5050233;28;20049;-69
2023/01/07 02:26:13;;;;;;;35.92;31.13;;;10.30;99.90;;;;;;5033932;28;20040;-69
2023/01/07 02:29:11;;;;;;;39.72;32.40;;;10.20;99.90;;;;;;5042999;28;20564;-69
2023/01/07 02:32:02;;;;;;;38.45;32.83;;;10.30;99.90;;;;;;5047806;28;20060;-69
2023/01/07 02:34:38;;;;;;;41.25;32.00;;;10.20;99.90;;;;;;5049631;28;20518;-69
2023/01/07 02:37:13;;;;;;;38.43;31.03;;;10.20;99.90;;;;;;5045215;28;20488;-69
2023/01/07 02:39:57;;;;;;;37.75;30.70;;;10.30;99.90;;;;;;5040542;28;20408;-69
2023/01/07 02:42:34;;;;;;;35.40;31.45;;;10.30;99.90;;;;;;5055549;28;20089;-69
2023/01/07 02:45:06;;;;;;;33.92;30.20;;;10.30;99.90;;;;;;5047724;28;20053;-69
2023/01/07 02:47:42;;;;;;;33.47;29.88;;;10.30;99.90;;;;;;5047973;28;20053;-69
2023/01/07 02:50:08;;;;;;;31.60;28.30;;;10.30;99.90;;;;;;5047931;28;20163;-69
2023/01/07 02:52:34;;;;;;;32.67;29.23;;;10.30;99.90;;;;;;5046463;28;20140;-69
2023/01/07 02:55:29;;;;;;;33.03;28.65;;;10.30;99.90;;;;;;5045544;28;20037;-69
2023/01/07 02:58:38;;;;;;;30.05;26.83;;;10.30;99.90;;;;;;5011378;28;20057;-69
2023/01/07 03:01:28;;;;;;;30.75;27.58;;;10.30;99.90;;;;;;4943690;28;20397;-69
2023/01/07 03:04:17;;;;;;;30.92;27.17;;;10.30;99.90;;;;;;5050367;28;20060;-69
2023/01/07 03:07:07;;;;;;;30.10;26.58;;;10.30;99.90;;;;;;5044104;28;20044;-69
2023/01/07 03:09:51;;;;;;;28.50;25.45;;;10.30;99.90;;;;;;5047051;28;20090;-69
2023/01/07 03:12:24;;;;;;;29.23;26.13;;;10.30;99.90;;;;;;5053871;28;20037;-69
2023/01/07 03:14:54;;;;;;;28.02;24.95;;;10.30;99.90;;;;;;5048496;28;20068;-69
2023/01/07 03:17:29;;;;;;;28.98;25.88;;;10.30;99.90;;;;;;5047676;28;20033;-69
2023/01/07 03:19:59;;;;;;;29.70;26.02;;;10.30;99.90;;;;;;5036359;28;20374;-68
2023/01/07 03:22:27;;;;;;;27.95;24.83;;;10.30;99.90;;;;;;5047061;28;20041;-68
2023/01/07 03:24:55;;;;;;;27.35;24.45;;;10.30;99.90;;;;;;5049252;28;20170;-68
2023/01/07 03:27:23;;;;;;;28.15;25.27;;;10.30;99.90;;;;;;5040093;28;20095;-69
2023/01/07 03:29:51;;;;;;;27.02;24.23;;;10.30;99.90;;;;;;5034587;28;20489;-69
2023/01/07 03:32:40;;;;;;;29.08;23.58;;;10.30;99.90;;;;;;5049230;28;20389;-69
2023/01/07 03:35:06;;;;;;;26.35;23.52;;;10.30;99.90;;;;;;5047578;28;20114;-69
2023/01/07 03:37:33;;;;;;;26.38;23.67;;;10.30;99.90;;;;;;5048260;28;20041;-69
2023/01/07 03:39:59;;;;;;;26.25;23.42;;;10.30;99.90;;;;;;5051055;28;20116;-69
2023/01/07 03:42:41;;;;;;;24.08;21.65;;;10.30;99.90;;;;;;5048593;28;20126;-70
2023/01/07 03:45:17;;;;;;;24.63;22.08;;;10.20;99.90;;;;;;5051154;28;20503;-70
2023/01/07 03:47:45;;;;;;;25.30;22.67;;;10.30;99.90;;;;;;5045484;28;20139;-69
2023/01/07 03:50:11;;;;;;;24.52;21.90;;;10.30;99.90;;;;;;5047472;28;20048;-69
2023/01/07 03:52:37;;;;;;;24.73;22.25;;;10.30;99.90;;;;;;5044591;28;20072;-70
2023/01/07 03:55:03;;;;;;;25.25;22.65;;;10.30;99.90;;;;;;5049472;28;20115;-69
2023/01/07 03:57:30;;;;;;;24.17;21.73;;;10.30;99.90;;;;;;5044398;28;20041;-69
2023/01/07 03:59:56;;;;;;;23.65;21.15;;;10.30;99.90;;;;;;5042476;28;20041;-69
2023/01/07 04:02:22;;;;;;;24.38;21.85;;;10.30;99.90;;;;;;5045859;28;20114;-69
2023/01/07 04:04:48;;;;;;;25.42;22.48;;;10.30;99.90;;;;;;5048019;28;20053;-70
2023/01/07 04:07:14;;;;;;;23.98;21.25;;;10.20;99.90;;;;;;5048591;28;20124;-69
2023/01/07 04:09:40;;;;;;;23.38;20.00;;;10.30;99.90;;;;;;5045810;28;20059;-69
2023/01/07 04:12:05;;;;;;;23.20;20.42;;;10.30;99.90;;;;;;5047325;28;20043;-69
2023/01/07 04:14:31;;;;;;;22.25;19.85;;;10.30;99.90;;;;;;5045560;28;20063;-69
2023/01/07 04:16:57;;;;;;;23.13;20.48;;;10.30;99.90;;;;;;5040760;28;20122;-70
2023/01/07 04:19:22;;;;;;;20.73;18.73;;;10.30;99.90;;;;;;5048511;28;20030;-70
2023/01/07 04:21:48;;;;;;;21.30;19.13;;;10.30;99.90;;;;;;5047441;28;20128;-69
2023/01/07 04:24:14;;;;;;;21.42;19.00;;;10.30;99.90;;;;;;5051011;28;20510;-69
2023/01/07 04:26:39;;;;;;;20.15;17.85;;;10.30;99.90;;;;;;5044558;28;20049;-69
2023/01/07 04:29:05;;;;;;;19.90;17.83;;;10.30;99.90;;;;;;5049559;28;20083;-69
2023/01/07 04:31:31;;;;;;;18.75;16.95;;;10.30;99.90;;;;;;5044246;28;20063;-70
2023/01/07 04:33:57;;;;;;;18.50;16.60;;;10.30;99.90;;;;;;5050508;28;20134;-69
2023/01/07 04:36:22;;;;;;;18.60;16.73;;;10.30;99.90;;;;;;5050699;28;20151;-69
2023/01/07 04:38:48;;;;;;;18.98;17.05;;;10.30;99.90;;;;;;5052436;28;20040;-69
2023/01/07 04:41:14;;;;;;;17.08;15.27;;;10.30;99.90;;;;;;5052478;28;20045;-69
2023/01/07 04:43:39;;;;;;;20.67;16.88;;;10.30;99.90;;;;;;5050942;28;20071;-69
2023/01/07 04:46:05;;;;;;;18.65;15.52;;;10.30;99.90;;;;;;5049064;28;20556;-69
2023/01/07 04:48:31;;;;;;;17.10;15.40;;;10.30;99.90;;;;;;5054420;28;20135;-69
2023/01/07 04:50:56;;;;;;;18.98;15.48;;;10.30;99.90;;;;;;5052893;28;20045;-69
2023/01/07 04:53:22;;;;;;;17.27;15.02;;;10.30;99.90;;;;;;5050446;28;20091;-69
2023/01/07 04:55:48;;;;;;;16.85;15.15;;;10.30;99.90;;;;;;5050495;28;20060;-69
2023/01/07 04:58:13;;;;;;;18.17;15.73;;;10.30;99.90;;;;;;5051479;28;20458;-69
2023/01/07 05:00:39;;;;;;;17.98;14.57;;;10.20;99.90;;;;;;5048279;28;20049;-69
2023/01/07 05:03:05;;;;;;;17.55;14.55;;;10.20;99.90;;;;;;5049285;28;20032;-69
2023/01/07 05:05:31;;;;;;;15.45;13.85;;;10.20;99.90;;;;;;5050184;28;20476;-69
2023/01/07 05:07:56;;;;;;;17.35;14.52;;;10.20;99.90;;;;;;5050553;28;20178;-69
2023/01/07 05:10:22;;;;;;;15.05;13.38;;;10.20;99.90;;;;;;5051733;28;20111;-69
2023/01/07 05:12:48;;;;;;;16.00;13.65;;;10.20;99.90;;;;;;5050967;28;20041;-69
2023/01/07 05:15:13;;;;;;;16.05;13.60;;;10.20;99.90;;;;;;5051441;28;20044;-69
2023/01/07 05:17:39;;;;;;;15.85;13.10;;;10.20;99.90;;;;;;5046023;28;20114;-69
2023/01/07 05:20:07;;;;;;;15.00;13.40;;;10.20;99.90;;;;;;5043763;28;20489;-69
2023/01/07 05:22:32;;;;;;;;;;;10.20;99.90;;;;;;5050209;28;20072;-69
2023/01/07 05:24:58;;;;;;;13.75;12.05;;;10.20;99.90;;;;;;5046079;28;19964;-69
2023/01/07 05:27:23;;;;;;;15.25;12.18;;;10.20;99.90;;;;;;5045567;28;20075;-69
2023/01/07 05:29:49;;;;;;;15.57;12.48;;;10.20;99.90;;;;;;5060712;28;20459;-69
2023/01/07 05:32:15;;;;;;;13.40;12.10;;;10.20;99.90;;;;;;5057586;28;20064;-69
2023/01/07 05:34:40;;;;;;;12.95;11.65;;;10.20;99.90;;;;;;5047544;28;20049;-69
2023/01/07 05:37:06;;;;;;;15.05;11.48;;;10.20;99.90;;;;;;5044730;28;20127;-69
2023/01/07 05:39:31;;;;;;;15.70;11.68;;;10.20;99.90;;;;;;5047642;28;20484;-69
2023/01/07 05:41:58;;;;;;;12.65;11.35;;;10.20;99.90;;;;;;5051367;28;20037;-69
2023/01/07 05:44:24;;;;;;;16.20;11.63;;;10.20;99.90;;;;;;5048208;28;20052;-69
2023/01/07 05:46:49;;;;;;;14.35;11.52;;;10.10;99.90;;;;;;5051237;28;20041;-69
2023/01/07 05:49:15;;;;;;;14.23;11.52;;;10.10;99.90;;;;;;5052231;28;20163;-69
2023/01/07 05:51:41;;;;;;;13.70;10.75;;;10.10;99.90;;;;;;5049959;28;20451;-69
2023/01/07 05:54:07;;;;;;;12.05;10.82;;;10.10;99.90;;;;;;5046629;28;20040;-69
2023/01/07 05:56:33;;;;;;;12.47;11.17;;;10.10;99.90;;;;;;5046962;28;20045;-69
2023/01/07 05:58:59;;;;;;;12.43;10.95;;;10.10;99.90;;;;;;5050002;28;20033;-69
2023/01/07 06:01:24;;;;;;;12.98;10.60;;;10.00;99.90;;;;;;5050444;28;20056;-69
2023/01/07 06:03:50;;;;;;;12.32;10.90;;;10.00;99.90;;;;;;5049264;28;20400;-69
2023/01/07 06:06:16;;;;;;;11.55;10.35;;;10.00;99.90;;;;;;5052417;28;20037;-69
2023/01/07 06:08:42;;;;;;;13.18;10.13;;;10.00;99.90;;;;;;5049063;28;20104;-69
2023/01/07 06:11:08;;;;;;;11.27;10.18;;;10.00;99.90;;;;;;5049810;28;20044;-69
2023/01/07 06:13:34;;;;;;;11.82;10.63;;;10.00;99.90;;;;;;5056777;28;20082;-69
2023/01/07 06:16:02;;;;;;;12.50;10.30;;;10.00;99.90;;;;;;5055716;28;20052;-69
2023/01/07 06:18:27;;;;;;;12.27;9.18;;;10.00;99.90;;;;;;5047890;28;20041;-69
2023/01/07 06:20:53;;;;;;;11.50;10.13;;;9.90;99.90;;;;;;5052250;28;20396;-70
2023/01/07 06:23:18;;;;;;;11.45;9.85;;;9.90;99.90;;;;;;5047828;28;20114;-69
2023/01/07 06:25:44;;;;;;;13.00;10.93;;;9.90;99.90;;;;;;5039192;28;20116;-69
2023/01/07 06:28:10;;;;;;;10.18;9.18;;;9.90;99.90;;;;;;5044038;28;20049;-69
2023/01/07 06:30:35;;;;;;;10.85;9.70;;;9.90;99.90;;;;;;5042204;28;20052;-69
2023/01/07 06:33:01;;;;;;;10.85;9.52;;;9.90;99.90;;;;;;5047463;28;20049;-69
2023/01/07 06:35:27;;;;;;;11.25;9.05;;;9.80;99.90;;;;;;5049279;28;20053;-69
2023/01/07 06:37:52;;;;;;;12.15;10.15;;;9.80;99.90;;;;;;5050779;28;20440;-69
2023/01/07 06:40:18;;;;;;;12.27;9.48;;;9.80;99.90;;;;;;5049738;28;20072;-69
2023/01/07 06:42:44;;;;;;;13.00;9.65;;;9.80;99.90;;;;;;5050545;28;20461;-69
2023/01/07 06:45:09;;;;;;;11.60;9.73;;;9.80;99.90;;;;;;5049221;28;20037;-69
2023/01/07 06:47:35;;;;;;;10.32;9.13;;;9.80;99.90;;;;;;5037042;28;20053;-69
2023/01/07 06:50:01;;;;;;;13.20;11.25;;;9.80;99.90;;;;;;5042105;28;20041;-70
2023/01/07 06:52:27;;;;;;;19.33;17.48;;;9.70;99.90;;;;;;5055746;28;20068;-69
2023/01/07 06:54:53;;;;;;;17.58;14.52;;;9.80;99.90;;;;;;5045284;28;20067;-70
2023/01/07 06:57:18;;;;;;;18.05;16.45;;;9.80;99.90;;;;;;5044879;28;20044;-69
2023/01/07 06:59:44;;;;;;;26.15;23.90;;;9.80;99.90;;;;;;5045313;28;20041;-69
2023/01/07 07:02:21;;;;;;;28.98;26.45;;;9.70;99.90;;;;;;5042340;28;20052;-69
2023/01/07 07:04:47;;;;;;;13.48;12.18;;;9.80;99.90;;;;;;5046302;28;20099;-69
2023/01/07 07:07:13;;;;;;;11.15;10.00;;;9.70;99.90;;;;;;5047636;28;20049;-69
2023/01/07 07:09:39;;;;;;;11.07;9.88;;;9.70;99.90;;;;;;5047601;28;20057;-69
2023/01/07 07:12:05;;;;;;;11.65;8.75;;;9.70;99.90;;;;;;5048583;28;20493;-69
2023/01/07 07:14:31;;;;;;;11.60;8.32;;;9.70;99.90;;;;;;5044978;28;20040;-69
2023/01/07 07:16:56;;;;;;;11.18;9.02;;;9.70;99.90;;;;;;5037088;28;20079;-69
2023/01/07 07:19:22;;;;;;;9.68;8.27;;;9.70;99.90;;;;;;5047971;28;20093;-69
2023/01/07 07:21:48;;;;;;;10.10;8.27;;;9.70;99.90;;;;;;5044621;28;20060;-69
2023/01/07 07:24:14;;;;;;;10.05;8.30;;;9.70;99.90;;;;;;5049302;28;20052;-69
2023/01/07 07:26:40;;;;;;;10.15;8.52;;;9.70;99.90;;;;;;5045478;28;20068;-69
2023/01/07 07:29:05;;;;;;;9.60;8.50;;;9.80;99.90;;;;;;5046135;28;20143;-70
2023/01/07 07:31:32;;;;;;;11.02;8.20;;;9.70;99.90;;;;;;5044160;28;20060;-70
2023/01/07 07:33:58;;;;;;;9.93;8.18;;;9.70;99.90;;;;;;5039628;28;20064;-70
2023/01/07 07:36:24;;;;;;;9.15;7.80;;;9.70;99.90;;;;;;5045169;28;20056;-70
2023/01/07 07:38:49;;;;;;;9.70;7.55;;;9.70;99.90;;;;;;5049053;28;20391;-70
2023/01/07 07:41:15;;;;;;;9.73;7.40;;;9.70;99.90;;;;;;5049269;28;20134;-67
2023/01/07 07:43:41;;;;;;;8.57;7.78;;;9.60;99.90;;;;;;5041565;28;20044;-69
2023/01/07 07:46:07;;;;;;;9.15;7.32;;;9.60;99.90;;;;;;5045321;28;20045;-69
2023/01/07 07:48:33;;;;;;;7.93;7.10;;;9.60;99.90;;;;;;5042029;28;20606;-70
2023/01/07 07:50:59;;;;;;;7.65;6.85;;;9.60;99.90;;;;;;5045193;28;20068;-69
2023/01/07 07:53:25;;;;;;;7.75;6.60;;;9.60;99.90;;;;;;5045283;28;20048;-70
2023/01/07 07:55:52;;;;;;;9.75;6.95;;;9.70;99.90;;;;;;5042776;28;20041;-69
2023/01/07 07:58:18;;;;;;;10.25;6.85;;;9.70;99.90;;;;;;5044761;28;20052;-69
2023/01/07 08:00:44;;;;;;;9.18;6.75;;;9.70;99.90;;;;;;5046352;28;20369;-69
2023/01/07 08:03:11;;;;;;;9.00;6.90;;;9.70;99.90;;;;;;5044616;28;20499;-69
2023/01/07 08:05:42;;;;;;;8.93;6.50;;;9.70;99.90;;;;;;5044628;28;20052;-69
2023/01/07 08:08:10;;;;;;;9.20;6.65;;;9.70;99.90;;;;;;5049965;28;20427;-69
2023/01/07 08:10:36;;;;;;;8.30;6.72;;;9.70;99.90;;;;;;5045680;28;20056;-68
2023/01/07 08:13:03;;;;;;;7.70;5.72;;;9.70;99.90;;;;;;5044963;28;20051;-70
2023/01/07 08:15:29;;;;;;;8.43;6.03;;;9.80;99.90;;;;;;5048416;28;20072;-69
2023/01/07 08:18:04;;;;;;;6.97;5.82;;;9.80;99.90;;;;;;5038131;28;20041;-71
2023/01/07 08:20:30;;;;;;;8.63;6.07;;;9.80;99.90;;;;;;5044371;28;20048;-71
2023/01/07 08:23:00;;;;;;;6.57;5.90;;;9.80;99.90;;;;;;5048882;28;20090;-71
2023/01/07 08:25:28;;;;;;;6.88;5.47;;;9.80;99.90;;;;;;5046541;28;20044;-70
2023/01/07 08:27:54;;;;;;;6.88;5.55;;;9.80;99.90;;;;;;5049719;28;20045;-71
2023/01/07 08:30:21;;;;;;;8.23;5.43;;;9.80;99.90;;;;;;5052574;28;20383;-72
2023/01/07 08:32:47;;;;;;;7.72;5.93;;;9.80;99.90;;;;;;5045956;28;20060;-71
2023/01/07 08:35:12;;;;;;;5.93;5.07;;;9.80;99.90;;;;;;5043147;28;20144;-72
2023/01/07 08:37:38;;;;;;;7.40;5.57;;;9.80;99.90;;;;;;5046909;28;20533;-72
2023/01/07 08:40:05;;;;;;;10.63;5.50;;;9.80;99.90;;;;;;5051478;28;20114;-71
2023/01/07 08:42:30;;;;;;;7.28;5.80;;;9.80;99.90;;;;;;5048006;28;20488;-71
2023/01/07 08:44:56;;;;;;;7.97;5.43;;;9.80;99.90;;;;;;5049791;28;20049;-72
2023/01/07 08:47:22;;;;;;;6.10;5.03;;;9.80;99.90;;;;;;5047980;28;20054;-70
2023/01/07 08:49:47;;;;;;;6.90;4.90;;;9.90;99.90;;;;;;5049873;28;20033;-72
2023/01/07 08:52:13;;;;;;;7.57;4.85;;;9.90;99.90;;;;;;5040463;28;20071;-71
2023/01/07 08:54:39;;;;;;;6.20;4.68;;;9.80;99.90;;;;;;5049256;28;20075;-71
2023/01/07 08:57:04;;;;;;;8.73;4.80;;;9.90;99.90;;;;;;5052850;28;20470;-70
2023/01/07 08:59:30;;;;;;;6.45;4.30;;;9.80;99.90;;;;;;5051128;28;20045;-70
2023/01/07 09:01:56;;;;;;;5.90;3.97;;;9.90;99.90;;;;;;5043740;28;20143;-72
2023/01/07 09:04:22;;;;;;;6.18;4.60;;;9.90;99.90;;;;;;5049522;28;20088;-72
2023/01/07 09:06:47;;;;;;;5.65;4.15;;;9.90;99.90;;;;;;5051947;28;20075;-72
2023/01/07 09:09:15;;;;;;;6.82;4.18;;;10.00;99.90;;;;;;5049335;28;20056;-71
2023/01/07 09:11:41;;;;;;;5.00;3.70;;;10.00;99.90;;;;;;5048009;28;20492;-71
2023/01/07 09:14:07;;;;;;;4.80;3.78;;;10.00;99.90;;;;;;5051127;28;20044;-70
2023/01/07 09:16:32;;;;;;;6.47;4.03;;;10.00;99.90;;;;;;5044335;28;20122;-71
2023/01/07 09:18:58;;;;;;;6.22;3.83;;;10.00;99.90;;;;;;5049418;28;20037;-71
2023/01/07 09:21:24;;;;;;;4.40;3.40;;;10.00;99.90;;;;;;5049929;28;20041;-71
2023/01/07 09:23:49;;;;;;;4.35;3.50;;;10.00;99.90;;;;;;5048763;28;20408;-70
2023/01/07 09:26:15;;;;;;;3.75;3.35;;;10.10;99.90;;;;;;5050487;28;20044;-70
2023/01/07 09:28:40;;;;;;;5.60;3.25;;;10.10;99.90;;;;;;5049131;28;20041;-69
2023/01/07 09:31:06;;;;;;;5.38;3.28;;;10.10;99.90;;;;;;5051306;28;20143;-71
2023/01/07 09:33:32;;;;;;;5.43;3.35;;;10.20;99.90;;;;;;5047681;28;20068;-72
2023/01/07 09:35:58;;;;;;;4.80;3.30;;;10.20;99.90;;;;;;5041233;28;20052;-70
2023/01/07 09:38:24;;;;;;;5.70;3.20;;;10.20;99.90;;;;;;5041897;28;20052;-75
2023/01/07 09:40:50;;;;;;;6.32;3.47;;;10.30;99.90;;;;;;5047107;28;20364;-70
2023/01/07 09:43:40;;;;;;;5.95;2.97;;;10.30;99.90;;;;;;5053663;28;20049;-70
2023/01/07 09:46:07;;;;;;;4.40;3.28;;;10.40;99.90;;;;;;5042349;28;20488;-70
2023/01/07 09:48:41;;;;;;;5.25;3.28;;;10.40;99.90;;;;;;5048854;28;20037;-70
2023/01/07 09:51:12;;;;;;;4.07;2.90;;;10.50;99.90;;;;;;5051999;28;20041;-70
2023/01/07 09:53:49;;;;;;;6.43;2.83;;;10.40;99.90;;;;;;5050819;28;20087;-70
2023/01/07 09:56:22;;;;;;;5.07;2.92;;;10.40;99.90;;;;;;5051212;28;20044;-70
2023/01/07 09:58:48;;;;;;;4.45;2.85;;;10.50;99.90;;;;;;5049179;28;20087;-70
2023/01/07 10:01:36;;;;;;;4.90;2.78;;;10.50;99.90;;;;;;5051402;28;20037;-70
2023/01/07 10:04:08;;;;;;;5.15;2.75;;;10.60;99.90;;;;;;5049289;28;20506;-70
2023/01/07 10:07:22;;;;;;;5.28;2.80;;;10.60;99.90;;;;;;5051038;28;20072;-70
2023/01/07 10:10:14;;;;;;;5.28;2.50;;;10.60;99.90;;;;;;4969554;28;20070;-70
2023/01/07 10:12:59;;;;;;;3.75;2.72;;;10.70;99.90;;;;;;4930725;28;20058;-71
2023/01/07 10:15:54;;;;;;;6.03;2.92;;;10.70;99.90;;;;;;5018492;28;20491;-70
2023/01/07 10:18:44;;;;;;;6.32;2.58;;;10.70;99.90;;;;;;5041178;28;20044;-71
2023/01/07 10:21:33;;;;;;;4.63;2.60;;;10.80;99.90;;;;;;5048109;28;20387;-71
2023/01/07 10:24:04;;;;;;;3.13;2.67;;;10.80;99.90;;;;;;5041896;28;20167;-71
2023/01/07 10:26:35;;;;;;;3.55;2.30;;;10.80;99.90;;;;;;5048564;28;20072;-71
2023/01/07 10:29:31;;;;;;;3.30;2.40;;;10.80;99.90;;;;;;5045257;28;20400;-70
2023/01/07 10:32:03;;;;;;;3.30;2.30;;;10.90;99.90;;;;;;5044423;28;20110;-72
2023/01/07 10:34:36;;;;;;;4.75;2.30;;;10.80;99.90;;;;;;5045213;28;20049;-71
2023/01/07 10:37:12;;;;;;;3.92;2.40;;;10.90;99.90;;;;;;5047613;28;20111;-70
2023/01/07 10:40:06;;;;;;;4.78;2.90;;;10.90;99.90;;;;;;5047339;28;20789;-70
2023/01/07 10:42:46;;;;;;;4.60;2.50;;;10.90;99.90;;;;;;5046989;28;20068;-70
2023/01/07 10:45:35;;;;;;;4.25;2.50;;;10.90;99.90;;;;;;5048342;28;20585;-71
2023/01/07 10:48:11;;;;;;;4.43;2.45;;;10.90;99.90;;;;;;5045439;28;20103;-70
2023/01/07 10:50:45;;;;;;;4.70;2.30;;;10.90;99.90;;;;;;5048540;28;20059;-71
2023/01/07 10:53:42;;;;;;;4.15;2.35;;;10.90;99.90;;;;;;5112355;27;20537;-71
2023/01/07 10:56:20;;;;;;;7.45;2.35;;;10.90;99.90;;;;;;5104239;28;20482;-70
2023/01/07 10:58:46;;;;;;;;;;;10.90;99.90;;;;;;5121685;27;20093;-71
2023/01/07 11:01:21;;;;;;;4.35;2.67;;;10.80;99.90;;;;;;5116839;27;19919;-74
2023/01/07 11:03:52;;;;;;;4.10;2.42;;;10.90;99.90;;;;;;5104781;28;20039;-72
2023/01/07 11:06:33;;;;;;;5.80;2.67;;;10.90;99.90;;;;;;5107996;28;20491;-73
2023/01/07 11:09:02;;;;;;;5.63;2.50;;;10.90;99.90;;;;;;5118230;27;20036;-68
2023/01/07 11:11:27;;;;;;;4.63;2.53;;;11.00;99.90;;;;;;5107331;28;20075;-70
2023/01/07 11:14:03;;;;;;;6.22;3.10;;;11.00;99.90;;;;;;5107004;28;20076;-68
2023/01/07 11:16:34;;;;;;;6.72;2.90;;;11.00;99.90;;;;;;5119913;28;20047;-70
2023/01/07 11:19:07;;;;;;;5.15;2.80;;;10.90;99.90;;;;;;5101283;27;20059;-69
2023/01/07 11:21:44;;;;;;;4.60;2.83;;;10.90;99.90;;;;;;5120297;28;20040;-68
2023/01/07 11:24:32;;;;;;;4.07;2.80;;;11.00;99.90;;;;;;5099758;28;20053;-67
2023/01/07 11:27:15;;;;;;;6.13;3.03;;;11.00;99.90;;;;;;5113684;28;20380;-69
2023/01/07 11:30:04;;;;;;;4.43;2.60;;;10.90;99.90;;;;;;5106420;28;20047;-67
2023/01/07 11:32:37;;;;;;;4.75;2.60;;;10.90;99.90;;;;;;5112501;27;20054;-67
2023/01/07 11:35:07;;;;;;;4.80;2.67;;;11.00;99.90;;;;;;5113884;27;20439;-67
2023/01/07 11:37:41;;;;;;;4.68;2.50;;;10.90;99.90;;;;;;5112848;28;20039;-67
2023/01/07 11:40:13;;;;;;;4.72;2.92;;;10.90;99.90;;;;;;5111313;27;20061;-68
2023/01/07 11:42:58;;;;;;;4.22;2.50;;;10.90;99.90;;;;;;5123782;28;20051;-67
2023/01/07 11:45:58;;;;;;;5.93;2.58;;;10.90;99.90;;;;;;5116236;28;20097;-68
2023/01/07 11:48:33;;;;;;;3.42;2.22;;;10.90;99.90;;;;;;5071169;28;20060;-68
2023/01/07 11:50:59;;;;;;;4.80;1.90;;;10.90;99.90;;;;;;5123398;28;20114;-68
2023/01/07 11:53:38;;;;;;;4.13;2.40;;;11.00;99.90;;;;;;5114356;27;20631;-70
2023/01/07 11:56:19;;;;;;;5.10;2.55;;;11.00;99.90;;;;;;5105106;28;20048;-71
2023/01/07 11:59:06;;;;;;;3.45;2.13;;;11.00;99.90;;;;;;5100311;28;20059;-70
2023/01/07 12:01:39;;;;;;;;;;;11.00;99.90;;;;;;5088023;28;20059;-71
2023/01/07 12:04:26;;;;;;;2.83;2.10;;;11.00;99.90;;;;;;5105101;28;20019;-70
2023/01/07 12:06:56;;;;;;;3.08;2.10;;;11.00;99.90;;;;;;5092107;28;20044;-70
2023/01/07 12:09:30;;;;;;;4.35;2.50;;;11.10;99.90;;;;;;5107910;28;20043;-72
2023/01/07 12:11:59;;;;;;;3.38;2.60;;;11.10;99.90;;;;;;5089121;28;20044;-73
2023/01/07 12:14:31;;;;;;;4.03;2.10;;;11.10;99.90;;;;;;5104802;27;20131;-68
2023/01/07 12:17:28;;;;;;;2.50;2.15;;;11.10;99.90;;;;;;5080294;28;20495;-67
2023/01/07 12:20:28;;;;;;;2.78;2.22;;;11.20;99.90;;;;;;5077481;28;20109;-68
2023/01/07 12:23:00;;;;;;;4.93;2.30;;;11.20;99.90;;;;;;5103333;28;20085;-68
2023/01/07 12:25:45;;;;;;;3.95;2.25;;;11.20;99.90;;;;;;5083936;28;20553;-67
2023/01/07 12:28:17;;;;;;;4.00;2.10;;;11.20;99.90;;;;;;5106052;28;20048;-67
2023/01/07 12:31:16;;;;;;;3.40;2.08;;;11.20;99.90;;;;;;5088020;28;20072;-71
2023/01/07 12:34:06;;;;;;;3.03;2.05;;;11.30;99.90;;;;;;5086301;28;20109;-70
2023/01/07 12:36:46;;;;;;;3.28;2.20;;;11.30;99.90;;;;;;5086516;28;20445;-71
2023/01/07 12:39:21;;;;;;;2.95;2.17;;;11.40;99.90;;;;;;5083486;28;20043;-71
2023/01/07 12:41:56;;;;;;;4.60;2.70;;;11.30;99.90;;;;;;5096016;28;20495;-72
2023/01/07 12:44:22;;;;;;;5.18;2.70;;;11.40;99.90;;;;;;5093534;28;20191;-69
2023/01/07 12:47:18;;;;;;;5.60;3.13;;;11.40;99.90;;;;;;5110600;28;20138;-69
2023/01/07 12:50:01;;;;;;;3.75;2.20;;;11.40;99.90;;;;;;5087504;28;20040;-70
2023/01/07 12:52:50;;;;;;;6.10;2.30;;;11.50;99.90;;;;;;5086311;28;20466;-70
2023/01/07 12:55:20;;;;;;;3.53;2.03;;;11.50;99.90;;;;;;5093601;28;20052;-70
2023/01/07 12:58:15;;;;;;;3.53;2.08;;;11.50;99.90;;;;;;5093177;28;20052;-71
2023/01/07 13:01:04;;;;;;;3.95;2.10;;;11.50;99.90;;;;;;5074821;28;20043;-68